sensor_id;sensor_type;location;lat;lon;timestamp;P1;durP1;ratioP1;P2;durP2;ratioP2
4462;SDS011;2244;50.200;8.220;2023-04-05T00:02:11;13.73;;;5.57;;
4462;SDS011;2244;50.200;8.220;2023-04-05T00:04:39;11.70;;;5.37;;
4462;SDS011;2244;50.200;8.220;2023-04-05T00:07:08;14.37;;;5.57;;
4462;SDS011;2244;50.200;8.220;2023-04-05T00:09:37;12.50;;;5.23;;
4462;SDS011;2244;50.200;8.220;2023-04-05T00:12:04;12.63;;;5.87;;
4462;SDS011;2244;50.200;8.220;2023-04-05T00:14:32;11.37;;;5.17;;
4462;SDS011;2244;50.200;8.220;2023-04-05T00:16:59;11.80;;;5.00;;
4462;SDS011;2244;50.200;8.220;2023-04-05T00:19:26;12.17;;;5.10;;
4462;SDS011;2244;50.200;8.220;2023-04-05T00:21:53;13.33;;;5.23;;
4462;SDS011;2244;50.200;8.220;2023-04-05T00:24:21;10.67;;;5.30;;
4462;SDS011;2244;50.200;8.220;2023-04-05T00:26:49;11.60;;;5.20;;
4462;SDS011;2244;50.200;8.220;2023-04-05T00:29:17;14.80;;;5.50;;
4462;SDS011;2244;50.200;8.220;2023-04-05T00:31:44;18.00;;;5.70;;
4462;SDS011;2244;50.200;8.220;2023-04-05T00:34:11;11.20;;;5.60;;
4462;SDS011;2244;50.200;8.220;2023-04-05T00:36:39;15.50;;;5.30;;
4462;SDS011;2244;50.200;8.220;2023-04-05T00:39:06;13.30;;;4.93;;
4462;SDS011;2244;50.200;8.220;2023-04-05T00:41:34;11.00;;;5.73;;
4462;SDS011;2244;50.200;8.220;2023-04-05T00:44:02;11.10;;;5.03;;
4462;SDS011;2244;50.200;8.220;2023-04-05T00:46:32;11.97;;;5.83;;
4462;SDS011;2244;50.200;8.220;2023-04-05T00:48:58;12.33;;;4.97;;
4462;SDS011;2244;50.200;8.220;2023-04-05T00:51:26;11.03;;;5.17;;
4462;SDS011;2244;50.200;8.220;2023-04-05T00:53:53;12.40;;;5.50;;
4462;SDS011;2244;50.200;8.220;2023-04-05T00:56:21;13.80;;;5.67;;
4462;SDS011;2244;50.200;8.220;2023-04-05T00:58:49;10.27;;;5.00;;
4462;SDS011;2244;50.200;8.220;2023-04-05T01:01:20;10.70;;;4.90;;
4462;SDS011;2244;50.200;8.220;2023-04-05T01:03:52;13.47;;;5.73;;
4462;SDS011;2244;50.200;8.220;2023-04-05T01:09:04;14.93;;;5.43;;
4462;SDS011;2244;50.200;8.220;2023-04-05T01:11:32;11.50;;;5.40;;
4462;SDS011;2244;50.200;8.220;2023-04-05T01:14:01;14.00;;;5.57;;
4462;SDS011;2244;50.200;8.220;2023-04-05T01:16:28;10.87;;;4.70;;
4462;SDS011;2244;50.200;8.220;2023-04-05T01:18:56;14.57;;;5.53;;
4462;SDS011;2244;50.200;8.220;2023-04-05T01:29:25;14.50;;;5.60;;
4462;SDS011;2244;50.200;8.220;2023-04-05T01:32:02;13.73;;;5.30;;
4462;SDS011;2244;50.200;8.220;2023-04-05T01:34:32;12.67;;;5.37;;
4462;SDS011;2244;50.200;8.220;2023-04-05T01:37:01;14.70;;;6.30;;
4462;SDS011;2244;50.200;8.220;2023-04-05T01:39:29;12.00;;;5.30;;
4462;SDS011;2244;50.200;8.220;2023-04-05T01:42:02;17.60;;;6.03;;
4462;SDS011;2244;50.200;8.220;2023-04-05T01:44:27;11.70;;;5.30;;
4462;SDS011;2244;50.200;8.220;2023-04-05T01:46:54;12.77;;;5.10;;
4462;SDS011;2244;50.200;8.220;2023-04-05T01:49:22;11.93;;;6.07;;
4462;SDS011;2244;50.200;8.220;2023-04-05T01:51:50;10.90;;;5.63;;
4462;SDS011;2244;50.200;8.220;2023-04-05T01:54:17;11.67;;;5.57;;
4462;SDS011;2244;50.200;8.220;2023-04-05T01:56:45;11.60;;;5.80;;
4462;SDS011;2244;50.200;8.220;2023-04-05T01:59:12;12.40;;;5.70;;
4462;SDS011;2244;50.200;8.220;2023-04-05T02:01:39;12.67;;;5.57;;
4462;SDS011;2244;50.200;8.220;2023-04-05T02:04:07;13.47;;;5.70;;
4462;SDS011;2244;50.200;8.220;2023-04-05T02:06:34;11.57;;;5.70;;
4462;SDS011;2244;50.200;8.220;2023-04-05T02:09:02;14.37;;;5.60;;
4462;SDS011;2244;50.200;8.220;2023-04-05T02:11:29;13.73;;;6.30;;
4462;SDS011;2244;50.200;8.220;2023-04-05T02:13:56;11.67;;;5.30;;
4462;SDS011;2244;50.200;8.220;2023-04-05T02:16:24;12.60;;;6.20;;
4462;SDS011;2244;50.200;8.220;2023-04-05T02:18:55;13.40;;;5.40;;
4462;SDS011;2244;50.200;8.220;2023-04-05T02:21:24;14.67;;;5.70;;
4462;SDS011;2244;50.200;8.220;2023-04-05T02:23:52;13.97;;;6.30;;
4462;SDS011;2244;50.200;8.220;2023-04-05T02:26:19;12.70;;;5.83;;
4462;SDS011;2244;50.200;8.220;2023-04-05T02:28:47;12.37;;;5.70;;
4462;SDS011;2244;50.200;8.220;2023-04-05T02:31:14;14.10;;;5.70;;
4462;SDS011;2244;50.200;8.220;2023-04-05T02:33:42;13.43;;;6.30;;
4462;SDS011;2244;50.200;8.220;2023-04-05T02:36:10;14.80;;;5.70;;
4462;SDS011;2244;50.200;8.220;2023-04-05T02:38:38;11.40;;;5.77;;
4462;SDS011;2244;50.200;8.220;2023-04-05T02:41:08;14.17;;;6.37;;
4462;SDS011;2244;50.200;8.220;2023-04-05T02:43:37;11.97;;;6.10;;
4462;SDS011;2244;50.200;8.220;2023-04-05T02:46:04;16.83;;;6.60;;
4462;SDS011;2244;50.200;8.220;2023-04-05T02:48:32;11.20;;;5.63;;
4462;SDS011;2244;50.200;8.220;2023-04-05T02:50:59;10.70;;;4.80;;
4462;SDS011;2244;50.200;8.220;2023-04-05T02:53:27;12.67;;;5.40;;
4462;SDS011;2244;50.200;8.220;2023-04-05T02:55:54;13.23;;;5.77;;
4462;SDS011;2244;50.200;8.220;2023-04-05T02:58:22;13.63;;;5.20;;
4462;SDS011;2244;50.200;8.220;2023-04-05T03:00:50;12.37;;;5.50;;
4462;SDS011;2244;50.200;8.220;2023-04-05T03:03:19;13.77;;;5.23;;
4462;SDS011;2244;50.200;8.220;2023-04-05T03:05:47;15.07;;;5.47;;
4462;SDS011;2244;50.200;8.220;2023-04-05T03:08:15;14.83;;;5.77;;
4462;SDS011;2244;50.200;8.220;2023-04-05T03:10:45;10.70;;;5.10;;
4462;SDS011;2244;50.200;8.220;2023-04-05T03:13:13;11.30;;;5.60;;
4462;SDS011;2244;50.200;8.220;2023-04-05T03:15:40;14.53;;;6.37;;
4462;SDS011;2244;50.200;8.220;2023-04-05T03:18:08;16.80;;;5.70;;
4462;SDS011;2244;50.200;8.220;2023-04-05T03:20:36;13.33;;;6.10;;
4462;SDS011;2244;50.200;8.220;2023-04-05T03:23:07;12.57;;;5.80;;
4462;SDS011;2244;50.200;8.220;2023-04-05T03:25:35;14.20;;;5.80;;
4462;SDS011;2244;50.200;8.220;2023-04-05T03:28:07;12.67;;;5.83;;
4462;SDS011;2244;50.200;8.220;2023-04-05T03:30:34;13.77;;;5.87;;
4462;SDS011;2244;50.200;8.220;2023-04-05T03:33:02;12.00;;;5.53;;
4462;SDS011;2244;50.200;8.220;2023-04-05T03:35:29;12.50;;;5.90;;
4462;SDS011;2244;50.200;8.220;2023-04-05T03:37:57;12.63;;;5.60;;
4462;SDS011;2244;50.200;8.220;2023-04-05T03:40:24;11.60;;;5.70;;
4462;SDS011;2244;50.200;8.220;2023-04-05T03:42:52;14.73;;;5.83;;
4462;SDS011;2244;50.200;8.220;2023-04-05T03:45:19;12.20;;;6.17;;
4462;SDS011;2244;50.200;8.220;2023-04-05T03:47:48;13.80;;;5.90;;
4462;SDS011;2244;50.200;8.220;2023-04-05T03:50:15;11.27;;;5.57;;
4462;SDS011;2244;50.200;8.220;2023-04-05T03:52:43;13.00;;;5.80;;
4462;SDS011;2244;50.200;8.220;2023-04-05T03:55:11;11.70;;;5.60;;
4462;SDS011;2244;50.200;8.220;2023-04-05T03:57:43;15.40;;;6.03;;
4462;SDS011;2244;50.200;8.220;2023-04-05T04:00:11;12.33;;;5.80;;
4462;SDS011;2244;50.200;8.220;2023-04-05T04:02:43;14.30;;;6.37;;
4462;SDS011;2244;50.200;8.220;2023-04-05T04:05:11;45.77;;;7.00;;
4462;SDS011;2244;50.200;8.220;2023-04-05T04:07:39;15.57;;;6.77;;
4462;SDS011;2244;50.200;8.220;2023-04-05T04:10:07;16.63;;;5.97;;
4462;SDS011;2244;50.200;8.220;2023-04-05T04:12:36;18.10;;;6.03;;
4462;SDS011;2244;50.200;8.220;2023-04-05T04:15:03;13.87;;;6.63;;
4462;SDS011;2244;50.200;8.220;2023-04-05T04:17:34;14.50;;;5.50;;
4462;SDS011;2244;50.200;8.220;2023-04-05T04:20:02;12.73;;;5.70;;
4462;SDS011;2244;50.200;8.220;2023-04-05T04:22:34;14.13;;;6.27;;
4462;SDS011;2244;50.200;8.220;2023-04-05T04:25:04;15.67;;;5.50;;
4462;SDS011;2244;50.200;8.220;2023-04-05T04:27:33;11.90;;;6.10;;
4462;SDS011;2244;50.200;8.220;2023-04-05T04:30:01;12.90;;;5.60;;
4462;SDS011;2244;50.200;8.220;2023-04-05T04:32:29;12.40;;;5.70;;
4462;SDS011;2244;50.200;8.220;2023-04-05T04:35:14;16.87;;;6.87;;
4462;SDS011;2244;50.200;8.220;2023-04-05T04:37:44;12.43;;;5.77;;
4462;SDS011;2244;50.200;8.220;2023-04-05T04:40:16;13.93;;;7.17;;
4462;SDS011;2244;50.200;8.220;2023-04-05T04:42:44;13.30;;;5.90;;
4462;SDS011;2244;50.200;8.220;2023-04-05T04:45:17;11.33;;;5.70;;
4462;SDS011;2244;50.200;8.220;2023-04-05T04:47:45;14.23;;;6.30;;
4462;SDS011;2244;50.200;8.220;2023-04-05T04:50:13;13.30;;;6.10;;
4462;SDS011;2244;50.200;8.220;2023-04-05T04:52:41;11.97;;;6.10;;
4462;SDS011;2244;50.200;8.220;2023-04-05T04:55:08;18.47;;;6.27;;
4462;SDS011;2244;50.200;8.220;2023-04-05T04:57:38;13.43;;;6.50;;
4462;SDS011;2244;50.200;8.220;2023-04-05T05:00:06;16.90;;;7.10;;
4462;SDS011;2244;50.200;8.220;2023-04-05T05:02:36;11.93;;;5.80;;
4462;SDS011;2244;50.200;8.220;2023-04-05T05:05:04;12.30;;;6.00;;
4462;SDS011;2244;50.200;8.220;2023-04-05T05:07:31;14.77;;;6.17;;
4462;SDS011;2244;50.200;8.220;2023-04-05T05:09:58;11.30;;;5.77;;
4462;SDS011;2244;50.200;8.220;2023-04-05T05:12:26;12.70;;;6.13;;
4462;SDS011;2244;50.200;8.220;2023-04-05T05:14:55;13.40;;;6.20;;
4462;SDS011;2244;50.200;8.220;2023-04-05T05:17:22;12.93;;;6.10;;
4462;SDS011;2244;50.200;8.220;2023-04-05T05:19:50;12.17;;;6.40;;
4462;SDS011;2244;50.200;8.220;2023-04-05T05:22:17;20.13;;;7.60;;
4462;SDS011;2244;50.200;8.220;2023-04-05T05:24:44;12.53;;;5.30;;
4462;SDS011;2244;50.200;8.220;2023-04-05T05:27:13;15.13;;;6.37;;
4462;SDS011;2244;50.200;8.220;2023-04-05T05:29:40;15.53;;;6.40;;
4462;SDS011;2244;50.200;8.220;2023-04-05T05:32:08;18.10;;;6.03;;
4462;SDS011;2244;50.200;8.220;2023-04-05T05:34:37;11.93;;;6.00;;
4462;SDS011;2244;50.200;8.220;2023-04-05T05:37:04;14.17;;;6.30;;
4462;SDS011;2244;50.200;8.220;2023-04-05T05:39:32;16.60;;;6.43;;
4462;SDS011;2244;50.200;8.220;2023-04-05T05:41:59;13.93;;;6.37;;
4462;SDS011;2244;50.200;8.220;2023-04-05T05:44:27;11.93;;;5.50;;
4462;SDS011;2244;50.200;8.220;2023-04-05T05:46:54;12.73;;;5.93;;
4462;SDS011;2244;50.200;8.220;2023-04-05T05:49:22;13.70;;;5.90;;
4462;SDS011;2244;50.200;8.220;2023-04-05T05:51:49;12.37;;;5.60;;
4462;SDS011;2244;50.200;8.220;2023-04-05T05:54:18;12.70;;;5.27;;
4462;SDS011;2244;50.200;8.220;2023-04-05T05:56:45;12.80;;;5.23;;
4462;SDS011;2244;50.200;8.220;2023-04-05T05:59:13;11.07;;;5.17;;
4462;SDS011;2244;50.200;8.220;2023-04-05T06:01:41;18.03;;;5.67;;
4462;SDS011;2244;50.200;8.220;2023-04-05T06:04:10;16.07;;;5.80;;
4462;SDS011;2244;50.200;8.220;2023-04-05T06:06:37;12.00;;;5.43;;
4462;SDS011;2244;50.200;8.220;2023-04-05T06:09:05;12.40;;;4.90;;
4462;SDS011;2244;50.200;8.220;2023-04-05T06:11:33;13.03;;;5.87;;
4462;SDS011;2244;50.200;8.220;2023-04-05T06:14:02;17.67;;;9.10;;
4462;SDS011;2244;50.200;8.220;2023-04-05T06:16:29;18.13;;;10.40;;
4462;SDS011;2244;50.200;8.220;2023-04-05T06:18:57;13.33;;;7.87;;
4462;SDS011;2244;50.200;8.220;2023-04-05T06:21:24;21.30;;;7.23;;
4462;SDS011;2244;50.200;8.220;2023-04-05T06:23:52;14.20;;;6.73;;
4462;SDS011;2244;50.200;8.220;2023-04-05T06:26:20;14.10;;;6.10;;
4462;SDS011;2244;50.200;8.220;2023-04-05T06:28:49;11.73;;;5.00;;
4462;SDS011;2244;50.200;8.220;2023-04-05T06:31:18;11.67;;;5.90;;
4462;SDS011;2244;50.200;8.220;2023-04-05T06:33:46;13.50;;;6.07;;
4462;SDS011;2244;50.200;8.220;2023-04-05T06:36:13;11.50;;;5.77;;
4462;SDS011;2244;50.200;8.220;2023-04-05T06:38:40;12.37;;;5.77;;
4462;SDS011;2244;50.200;8.220;2023-04-05T06:41:08;18.40;;;6.60;;
4462;SDS011;2244;50.200;8.220;2023-04-05T06:43:35;14.93;;;6.00;;
4462;SDS011;2244;50.200;8.220;2023-04-05T06:46:03;11.93;;;5.60;;
4462;SDS011;2244;50.200;8.220;2023-04-05T06:48:32;14.47;;;6.47;;
4462;SDS011;2244;50.200;8.220;2023-04-05T06:51:00;16.70;;;7.27;;
4462;SDS011;2244;50.200;8.220;2023-04-05T06:53:28;15.50;;;6.70;;
4462;SDS011;2244;50.200;8.220;2023-04-05T06:55:56;11.43;;;6.00;;
4462;SDS011;2244;50.200;8.220;2023-04-05T06:58:24;15.10;;;5.73;;
4462;SDS011;2244;50.200;8.220;2023-04-05T07:00:52;14.60;;;5.83;;
4462;SDS011;2244;50.200;8.220;2023-04-05T07:03:19;11.23;;;5.20;;
4462;SDS011;2244;50.200;8.220;2023-04-05T07:05:53;16.00;;;6.70;;
4462;SDS011;2244;50.200;8.220;2023-04-05T07:08:22;13.23;;;6.37;;
4462;SDS011;2244;50.200;8.220;2023-04-05T07:10:50;13.90;;;7.13;;
4462;SDS011;2244;50.200;8.220;2023-04-05T07:13:17;20.60;;;7.20;;
4462;SDS011;2244;50.200;8.220;2023-04-05T07:15:45;20.70;;;10.37;;
4462;SDS011;2244;50.200;8.220;2023-04-05T07:18:12;15.23;;;7.63;;
4462;SDS011;2244;50.200;8.220;2023-04-05T07:20:48;18.00;;;7.17;;
4462;SDS011;2244;50.200;8.220;2023-04-05T07:23:12;15.27;;;6.70;;
4462;SDS011;2244;50.200;8.220;2023-04-05T07:25:39;15.53;;;6.40;;
4462;SDS011;2244;50.200;8.220;2023-04-05T07:28:07;13.87;;;5.97;;
4462;SDS011;2244;50.200;8.220;2023-04-05T07:30:34;13.90;;;5.87;;
4462;SDS011;2244;50.200;8.220;2023-04-05T07:33:02;12.53;;;5.97;;
4462;SDS011;2244;50.200;8.220;2023-04-05T07:35:30;15.60;;;5.57;;
4462;SDS011;2244;50.200;8.220;2023-04-05T07:37:57;15.37;;;5.73;;
4462;SDS011;2244;50.200;8.220;2023-04-05T07:40:30;17.07;;;8.10;;
4462;SDS011;2244;50.200;8.220;2023-04-05T07:42:58;16.20;;;6.93;;
4462;SDS011;2244;50.200;8.220;2023-04-05T07:45:25;14.73;;;6.20;;
4462;SDS011;2244;50.200;8.220;2023-04-05T07:47:52;14.30;;;6.00;;
4462;SDS011;2244;50.200;8.220;2023-04-05T07:50:21;11.80;;;4.83;;
4462;SDS011;2244;50.200;8.220;2023-04-05T07:52:48;13.53;;;5.73;;
4462;SDS011;2244;50.200;8.220;2023-04-05T07:55:16;12.40;;;5.57;;
4462;SDS011;2244;50.200;8.220;2023-04-05T07:57:43;13.50;;;4.77;;
4462;SDS011;2244;50.200;8.220;2023-04-05T08:00:12;12.50;;;4.60;;
4462;SDS011;2244;50.200;8.220;2023-04-05T08:02:40;10.80;;;4.47;;
4462;SDS011;2244;50.200;8.220;2023-04-05T08:05:08;11.13;;;4.50;;
4462;SDS011;2244;50.200;8.220;2023-04-05T08:07:35;13.80;;;4.70;;
4462;SDS011;2244;50.200;8.220;2023-04-05T08:10:03;12.27;;;4.30;;
4462;SDS011;2244;50.200;8.220;2023-04-05T08:12:32;11.20;;;4.63;;
4462;SDS011;2244;50.200;8.220;2023-04-05T08:15:02;12.60;;;4.37;;
4462;SDS011;2244;50.200;8.220;2023-04-05T08:17:29;13.07;;;4.60;;
4462;SDS011;2244;50.200;8.220;2023-04-05T08:19:57;11.50;;;5.10;;
4462;SDS011;2244;50.200;8.220;2023-04-05T08:22:30;10.40;;;4.20;;
4462;SDS011;2244;50.200;8.220;2023-04-05T08:24:54;15.53;;;5.10;;
4462;SDS011;2244;50.200;8.220;2023-04-05T08:27:23;13.47;;;5.50;;
4462;SDS011;2244;50.200;8.220;2023-04-05T08:29:51;15.73;;;4.50;;
4462;SDS011;2244;50.200;8.220;2023-04-05T08:32:18;10.13;;;4.67;;
4462;SDS011;2244;50.200;8.220;2023-04-05T08:34:46;14.37;;;4.93;;
4462;SDS011;2244;50.200;8.220;2023-04-05T08:37:13;16.13;;;4.70;;
4462;SDS011;2244;50.200;8.220;2023-04-05T08:39:42;17.10;;;4.97;;
4462;SDS011;2244;50.200;8.220;2023-04-05T08:42:10;11.90;;;3.87;;
4462;SDS011;2244;50.200;8.220;2023-04-05T08:44:39;10.87;;;4.07;;
4462;SDS011;2244;50.200;8.220;2023-04-05T08:47:07;9.60;;;3.60;;
4462;SDS011;2244;50.200;8.220;2023-04-05T08:49:35;12.77;;;4.37;;
4462;SDS011;2244;50.200;8.220;2023-04-05T08:52:03;13.00;;;4.40;;
4462;SDS011;2244;50.200;8.220;2023-04-05T08:54:31;12.93;;;4.87;;
4462;SDS011;2244;50.200;8.220;2023-04-05T08:56:58;11.53;;;4.50;;
4462;SDS011;2244;50.200;8.220;2023-04-05T08:59:29;11.60;;;4.40;;
4462;SDS011;2244;50.200;8.220;2023-04-05T09:01:58;10.37;;;4.37;;
4462;SDS011;2244;50.200;8.220;2023-04-05T09:04:28;13.13;;;4.80;;
4462;SDS011;2244;50.200;8.220;2023-04-05T09:06:59;15.17;;;4.87;;
4462;SDS011;2244;50.200;8.220;2023-04-05T09:09:27;10.70;;;4.30;;
4462;SDS011;2244;50.200;8.220;2023-04-05T09:11:56;11.97;;;4.20;;
4462;SDS011;2244;50.200;8.220;2023-04-05T09:14:23;10.70;;;4.20;;
4462;SDS011;2244;50.200;8.220;2023-04-05T09:16:51;12.10;;;4.87;;
4462;SDS011;2244;50.200;8.220;2023-04-05T09:19:18;11.67;;;4.70;;
4462;SDS011;2244;50.200;8.220;2023-04-05T09:24:32;12.20;;;4.70;;
4462;SDS011;2244;50.200;8.220;2023-04-05T09:27:03;11.00;;;4.50;;
4462;SDS011;2244;50.200;8.220;2023-04-05T09:29:31;11.40;;;4.50;;
4462;SDS011;2244;50.200;8.220;2023-04-05T09:32:02;15.37;;;5.10;;
4462;SDS011;2244;50.200;8.220;2023-04-05T09:34:30;12.00;;;5.00;;
4462;SDS011;2244;50.200;8.220;2023-04-05T09:36:59;12.90;;;4.50;;
4462;SDS011;2244;50.200;8.220;2023-04-05T09:39:31;12.90;;;4.50;;
4462;SDS011;2244;50.200;8.220;2023-04-05T09:42:08;11.33;;;4.87;;
4462;SDS011;2244;50.200;8.220;2023-04-05T09:47:31;12.20;;;4.47;;
4462;SDS011;2244;50.200;8.220;2023-04-05T09:50:01;13.50;;;4.30;;
4462;SDS011;2244;50.200;8.220;2023-04-05T09:52:30;10.37;;;4.23;;
4462;SDS011;2244;50.200;8.220;2023-04-05T09:55:03;10.77;;;4.00;;
4462;SDS011;2244;50.200;8.220;2023-04-05T09:57:27;11.43;;;4.20;;
4462;SDS011;2244;50.200;8.220;2023-04-05T10:24:42;12.00;;;4.90;;
4462;SDS011;2244;50.200;8.220;2023-04-05T10:27:11;11.23;;;4.07;;
4462;SDS011;2244;50.200;8.220;2023-04-05T10:29:49;11.73;;;4.20;;
4462;SDS011;2244;50.200;8.220;2023-04-05T10:32:20;11.43;;;3.97;;
4462;SDS011;2244;50.200;8.220;2023-04-05T10:35:08;10.03;;;3.57;;
4462;SDS011;2244;50.200;8.220;2023-04-05T10:40:19;11.33;;;3.73;;
4462;SDS011;2244;50.200;8.220;2023-04-05T10:42:49;9.40;;;3.60;;
4462;SDS011;2244;50.200;8.220;2023-04-05T10:45:17;13.40;;;3.77;;
4462;SDS011;2244;50.200;8.220;2023-04-05T10:47:58;10.67;;;3.87;;
4462;SDS011;2244;50.200;8.220;2023-04-05T10:50:23;10.60;;;3.73;;
4462;SDS011;2244;50.200;8.220;2023-04-05T10:52:51;11.50;;;4.20;;
4462;SDS011;2244;50.200;8.220;2023-04-05T10:55:21;17.90;;;3.87;;
4462;SDS011;2244;50.200;8.220;2023-04-05T10:57:49;9.73;;;3.40;;
4462;SDS011;2244;50.200;8.220;2023-04-05T11:00:16;11.13;;;4.20;;
4462;SDS011;2244;50.200;8.220;2023-04-05T11:02:44;8.70;;;3.20;;
4462;SDS011;2244;50.200;8.220;2023-04-05T11:05:46;11.00;;;3.97;;
4462;SDS011;2244;50.200;8.220;2023-04-05T11:07:47;11.63;;;4.17;;
4462;SDS011;2244;50.200;8.220;2023-04-05T11:10:17;10.97;;;4.23;;
4462;SDS011;2244;50.200;8.220;2023-04-05T11:15:33;11.67;;;4.17;;
4462;SDS011;2244;50.200;8.220;2023-04-05T11:17:58;13.57;;;4.00;;
4462;SDS011;2244;50.200;8.220;2023-04-05T11:20:16;12.57;;;4.47;;
4462;SDS011;2244;50.200;8.220;2023-04-05T11:22:43;10.00;;;4.30;;
4462;SDS011;2244;50.200;8.220;2023-04-05T11:25:21;10.97;;;4.10;;
4462;SDS011;2244;50.200;8.220;2023-04-05T11:27:59;14.67;;;4.00;;
4462;SDS011;2244;50.200;8.220;2023-04-05T11:30:21;10.10;;;4.13;;
4462;SDS011;2244;50.200;8.220;2023-04-05T11:32:46;11.83;;;3.73;;
4462;SDS011;2244;50.200;8.220;2023-04-05T11:35:15;11.70;;;4.07;;
4462;SDS011;2244;50.200;8.220;2023-04-05T11:37:54;13.83;;;4.40;;
4462;SDS011;2244;50.200;8.220;2023-04-05T11:40:26;10.10;;;3.63;;
4462;SDS011;2244;50.200;8.220;2023-04-05T11:43:01;9.30;;;3.70;;
4462;SDS011;2244;50.200;8.220;2023-04-05T11:45:29;10.27;;;3.97;;
4462;SDS011;2244;50.200;8.220;2023-04-05T11:48:03;10.40;;;4.23;;
4462;SDS011;2244;50.200;8.220;2023-04-05T11:50:27;9.93;;;4.00;;
4462;SDS011;2244;50.200;8.220;2023-04-05T11:53:07;10.47;;;4.17;;
4462;SDS011;2244;50.200;8.220;2023-04-05T11:55:36;10.67;;;4.50;;
4462;SDS011;2244;50.200;8.220;2023-04-05T11:58:12;12.70;;;4.30;;
4462;SDS011;2244;50.200;8.220;2023-04-05T12:00:36;9.97;;;3.73;;
4462;SDS011;2244;50.200;8.220;2023-04-05T12:03:04;11.93;;;4.00;;
4462;SDS011;2244;50.200;8.220;2023-04-05T12:05:44;9.27;;;3.70;;
4462;SDS011;2244;50.200;8.220;2023-04-05T12:08:11;11.40;;;4.20;;
4462;SDS011;2244;50.200;8.220;2023-04-05T12:10:39;10.10;;;3.80;;
4462;SDS011;2244;50.200;8.220;2023-04-05T12:13:06;11.80;;;3.80;;
4462;SDS011;2244;50.200;8.220;2023-04-05T12:15:37;11.17;;;4.20;;
4462;SDS011;2244;50.200;8.220;2023-04-05T12:18:13;11.87;;;4.30;;
4462;SDS011;2244;50.200;8.220;2023-04-05T12:20:41;11.60;;;3.97;;
4462;SDS011;2244;50.200;8.220;2023-04-05T12:23:08;10.00;;;3.53;;
4462;SDS011;2244;50.200;8.220;2023-04-05T12:25:36;14.93;;;4.00;;
4462;SDS011;2244;50.200;8.220;2023-04-05T12:28:05;10.83;;;4.00;;
4462;SDS011;2244;50.200;8.220;2023-04-05T12:30:34;13.37;;;4.07;;
4462;SDS011;2244;50.200;8.220;2023-04-05T12:33:07;13.07;;;3.80;;
4462;SDS011;2244;50.200;8.220;2023-04-05T12:35:35;11.97;;;4.40;;
4462;SDS011;2244;50.200;8.220;2023-04-05T12:38:03;11.57;;;3.37;;
4462;SDS011;2244;50.200;8.220;2023-04-05T12:40:32;10.40;;;3.70;;
4462;SDS011;2244;50.200;8.220;2023-04-05T12:43:00;9.77;;;3.80;;
4462;SDS011;2244;50.200;8.220;2023-04-05T12:45:29;10.40;;;3.70;;
4462;SDS011;2244;50.200;8.220;2023-04-05T12:47:58;10.07;;;3.60;;
4462;SDS011;2244;50.200;8.220;2023-04-05T12:50:31;10.17;;;3.60;;
4462;SDS011;2244;50.200;8.220;2023-04-05T12:52:56;12.00;;;4.20;;
4462;SDS011;2244;50.200;8.220;2023-04-05T12:55:24;9.83;;;4.00;;
4462;SDS011;2244;50.200;8.220;2023-04-05T12:57:52;9.80;;;3.83;;
4462;SDS011;2244;50.200;8.220;2023-04-05T13:00:20;10.77;;;3.93;;
4462;SDS011;2244;50.200;8.220;2023-04-05T13:02:50;10.73;;;3.77;;
4462;SDS011;2244;50.200;8.220;2023-04-05T13:05:24;9.90;;;4.37;;
4462;SDS011;2244;50.200;8.220;2023-04-05T13:07:48;10.50;;;3.80;;
4462;SDS011;2244;50.200;8.220;2023-04-05T13:10:17;15.40;;;4.43;;
4462;SDS011;2244;50.200;8.220;2023-04-05T13:12:44;11.67;;;4.37;;
4462;SDS011;2244;50.200;8.220;2023-04-05T13:15:12;13.70;;;4.97;;
4462;SDS011;2244;50.200;8.220;2023-04-05T13:17:40;11.37;;;4.70;;
4462;SDS011;2244;50.200;8.220;2023-04-05T13:20:08;11.47;;;4.90;;
4462;SDS011;2244;50.200;8.220;2023-04-05T13:22:36;11.10;;;4.30;;
4462;SDS011;2244;50.200;8.220;2023-04-05T13:27:34;13.47;;;4.20;;
4462;SDS011;2244;50.200;8.220;2023-04-05T13:30:01;12.83;;;3.77;;
4462;SDS011;2244;50.200;8.220;2023-04-05T13:32:29;10.93;;;4.10;;
4462;SDS011;2244;50.200;8.220;2023-04-05T13:34:56;9.37;;;3.77;;
4462;SDS011;2244;50.200;8.220;2023-04-05T13:37:24;10.83;;;3.70;;
4462;SDS011;2244;50.200;8.220;2023-04-05T13:39:51;13.00;;;4.90;;
4462;SDS011;2244;50.200;8.220;2023-04-05T13:42:19;11.30;;;4.40;;
4462;SDS011;2244;50.200;8.220;2023-04-05T13:44:47;11.30;;;4.23;;
4462;SDS011;2244;50.200;8.220;2023-04-05T13:47:14;13.13;;;4.37;;
4462;SDS011;2244;50.200;8.220;2023-04-05T13:49:41;16.93;;;5.73;;
4462;SDS011;2244;50.200;8.220;2023-04-05T13:52:09;10.30;;;3.97;;
4462;SDS011;2244;50.200;8.220;2023-04-05T13:54:37;13.23;;;4.67;;
4462;SDS011;2244;50.200;8.220;2023-04-05T13:57:04;10.13;;;4.03;;
4462;SDS011;2244;50.200;8.220;2023-04-05T13:59:31;9.97;;;4.07;;
4462;SDS011;2244;50.200;8.220;2023-04-05T14:01:59;13.47;;;3.37;;
4462;SDS011;2244;50.200;8.220;2023-04-05T14:04:26;10.73;;;3.77;;
4462;SDS011;2244;50.200;8.220;2023-04-05T14:06:54;9.60;;;3.57;;
4462;SDS011;2244;50.200;8.220;2023-04-05T14:09:22;10.27;;;3.50;;
4462;SDS011;2244;50.200;8.220;2023-04-05T14:11:49;11.90;;;3.97;;
4462;SDS011;2244;50.200;8.220;2023-04-05T14:14:16;11.70;;;3.70;;
4462;SDS011;2244;50.200;8.220;2023-04-05T14:16:44;10.30;;;3.80;;
4462;SDS011;2244;50.200;8.220;2023-04-05T14:19:12;10.47;;;3.90;;
4462;SDS011;2244;50.200;8.220;2023-04-05T14:21:39;9.70;;;3.27;;
4462;SDS011;2244;50.200;8.220;2023-04-05T14:24:07;11.80;;;3.30;;
4462;SDS011;2244;50.200;8.220;2023-04-05T14:26:34;10.60;;;3.53;;
4462;SDS011;2244;50.200;8.220;2023-04-05T14:29:02;10.07;;;4.00;;
4462;SDS011;2244;50.200;8.220;2023-04-05T14:31:29;10.53;;;3.50;;
4462;SDS011;2244;50.200;8.220;2023-04-05T14:33:56;11.10;;;3.70;;
4462;SDS011;2244;50.200;8.220;2023-04-05T14:36:25;12.17;;;4.10;;
4462;SDS011;2244;50.200;8.220;2023-04-05T14:38:52;12.07;;;4.27;;
4462;SDS011;2244;50.200;8.220;2023-04-05T14:41:19;10.80;;;4.10;;
4462;SDS011;2244;50.200;8.220;2023-04-05T14:43:47;13.10;;;4.53;;
4462;SDS011;2244;50.200;8.220;2023-04-05T14:46:14;11.67;;;4.03;;
4462;SDS011;2244;50.200;8.220;2023-04-05T14:48:42;12.03;;;5.40;;
4462;SDS011;2244;50.200;8.220;2023-04-05T14:51:09;12.67;;;4.43;;
4462;SDS011;2244;50.200;8.220;2023-04-05T14:53:37;15.50;;;5.47;;
4462;SDS011;2244;50.200;8.220;2023-04-05T14:56:04;13.30;;;4.90;;
4462;SDS011;2244;50.200;8.220;2023-04-05T14:58:31;11.30;;;4.40;;
4462;SDS011;2244;50.200;8.220;2023-04-05T15:00:59;11.87;;;3.80;;
4462;SDS011;2244;50.200;8.220;2023-04-05T15:03:27;10.30;;;3.90;;
4462;SDS011;2244;50.200;8.220;2023-04-05T15:05:56;9.03;;;3.73;;
4462;SDS011;2244;50.200;8.220;2023-04-05T15:08:24;10.83;;;4.00;;
4462;SDS011;2244;50.200;8.220;2023-04-05T15:10:51;16.20;;;6.60;;
4462;SDS011;2244;50.200;8.220;2023-04-05T15:13:19;10.60;;;3.60;;
4462;SDS011;2244;50.200;8.220;2023-04-05T15:15:47;12.70;;;4.67;;
4462;SDS011;2244;50.200;8.220;2023-04-05T15:18:14;15.60;;;4.90;;
4462;SDS011;2244;50.200;8.220;2023-04-05T15:20:42;11.80;;;4.50;;
4462;SDS011;2244;50.200;8.220;2023-04-05T15:23:09;11.60;;;5.03;;
4462;SDS011;2244;50.200;8.220;2023-04-05T15:25:37;10.53;;;4.30;;
4462;SDS011;2244;50.200;8.220;2023-04-05T15:28:04;10.70;;;4.20;;
4462;SDS011;2244;50.200;8.220;2023-04-05T15:30:32;11.03;;;4.07;;
4462;SDS011;2244;50.200;8.220;2023-04-05T15:33:00;21.23;;;4.40;;
4462;SDS011;2244;50.200;8.220;2023-04-05T15:35:27;13.33;;;3.60;;
4462;SDS011;2244;50.200;8.220;2023-04-05T15:37:54;13.50;;;4.20;;
4462;SDS011;2244;50.200;8.220;2023-04-05T15:40:22;12.10;;;4.37;;
4462;SDS011;2244;50.200;8.220;2023-04-05T15:42:49;9.43;;;3.83;;
4462;SDS011;2244;50.200;8.220;2023-04-05T15:45:17;12.23;;;4.27;;
4462;SDS011;2244;50.200;8.220;2023-04-05T15:47:44;11.67;;;4.60;;
4462;SDS011;2244;50.200;8.220;2023-04-05T15:50:11;10.40;;;4.07;;
4462;SDS011;2244;50.200;8.220;2023-04-05T15:52:43;12.77;;;4.30;;
4462;SDS011;2244;50.200;8.220;2023-04-05T15:55:10;11.10;;;4.60;;
4462;SDS011;2244;50.200;8.220;2023-04-05T15:57:38;11.37;;;3.80;;
4462;SDS011;2244;50.200;8.220;2023-04-05T16:00:08;11.77;;;4.53;;